Latest Weather Observations for Moss Vale

IDN60801

Issued at 2:32 pm EDT Wednesday 22 February 2017 (issued every 30 minutes, with the page automatically refreshed every 10 minutes)

About weather observations | Map of weather stations | Latest weather observations for NSW | Other Formats
Station Details ID: 068239 Name: MOSS VALE AWS Lat: -34.53 Lon: 150.42 Height: 678.4 m
Data from the previous 72 hours. | See also: Recent months at Moss Vale
Date/Time
EDT
Temp
°C
App
Temp
°C
Dew
Point
°C
Rel
Hum
%
Delta-T
°C
Wind Press
QNH
hPa
Press
MSL
hPa
Rain since
9am
mm
Dir  Spd
km/h
Gust
km/h
Spd
kts
Gust
kts
22/02:00pm 24.5 20.0 13.7 51 6.5 NNE 30 39 16 21 - - 0.0
22/01:30pm 24.1 19.9 13.6 52 6.3 NNE 28 37 15 20 - - 0.0
22/01:00pm 23.2 17.6 13.4 54 5.9 NNE 35 44 19 24 - - 0.0
22/12:30pm 22.3 17.4 13.6 58 5.2 NNE 32 41 17 22 - - 0.0
22/12:00pm 21.9 16.9 13.5 59 5.0 NNE 32 44 17 24 - - 0.0
22/11:30am 21.4 16.3 13.6 61 4.6 NNE 33 43 18 23 - - 0.0
22/11:00am 20.8 16.0 14.0 65 4.1 NNE 32 41 17 22 - - 0.0
22/10:30am 19.6 15.1 13.8 69 3.4 N 30 41 16 22 - - 0.0
22/10:00am 18.6 13.5 13.7 73 2.9 N 33 43 18 23 - - 0.0
22/09:39am 18.5 13.7 12.9 70 3.2 N 30 50 16 27 - - 0.0
22/09:30am 18.5 14.7 13.6 73 2.9 N 26 37 14 20 - - 0.0
22/09:12am 17.9 13.7 13.6 76 2.5 NNE 28 37 15 20 - - 0.0
22/09:01am 18.1 14.1 14.0 77 2.4 NNE 28 39 15 21 - - 0.0
22/09:00am 18.3 14.4 14.4 78 2.3 NNE 28 39 15 21 - - 0.0
22/08:30am 17.4 13.6 13.7 79 2.2 NNE 26 37 14 20 - - 0.0
22/08:00am 16.1 12.3 13.6 85 1.5 NNE 26 35 14 19 - - 0.0
22/07:30am 15.5 13.0 14.0 91 0.9 NNE 20 28 11 15 - - 0.0
22/07:00am 15.2 11.4 13.7 91 0.9 NNE 26 37 14 20 - - 0.0
22/06:30am 14.8 11.7 13.5 92 0.7 NNE 22 33 12 18 - - 0.0
22/06:00am 14.9 11.8 13.3 90 0.9 NNE 22 32 12 17 - - 0.0
22/05:30am 15.2 11.6 13.2 88 1.1 NNE 24 33 13 18 - - 0.0
22/05:00am 15.1 11.5 13.0 87 1.2 NNE 24 35 13 19 - - 0.0
22/04:30am 14.9 11.3 12.9 88 1.1 NNE 24 30 13 16 - - 0.0
22/04:00am 15.0 12.1 13.0 88 1.1 NNE 20 30 11 16 - - 0.0
22/03:30am 14.5 11.5 12.5 88 1.1 NNE 20 28 11 15 - - 0.0
22/03:00am 14.7 11.9 12.7 88 1.1 NNE 19 24 10 13 - - 0.0
22/02:30am 14.6 11.8 12.6 88 1.1 NNE 19 24 10 13 - - 0.0
22/02:00am 14.8 12.4 12.7 87 1.2 NNE 17 24 9 13 - - 0.0
22/01:30am 14.9 12.6 12.9 88 1.1 NNE 17 20 9 11 - - 0.0
22/01:00am 15.3 12.7 13.2 87 1.2 NNE 19 26 10 14 - - 0.0
22/12:30am 15.6 13.3 13.1 85 1.4 NNE 17 24 9 13 - - 0.0
22/12:00am 16.3 13.2 13.4 83 1.7 NNE 22 30 12 16 - - 0.0
 
Date/Time
EDT
Temp
°C
App
Temp
°C
Dew
Point
°C
Rel
Hum
%
Delta-T
°C
Wind Press
QNH
hPa
Press
MSL
hPa
Rain since
9am
mm
Dir  Spd
km/h
Gust
km/h
Spd
kts
Gust
kts
21/11:30pm 16.3 13.9 13.8 85 1.5 NE 19 24 10 13 - - 0.0
21/11:00pm 16.2 13.5 13.5 84 1.6 NE 20 24 11 13 - - 0.0
21/10:30pm 16.4 13.4 13.7 84 1.6 NE 22 30 12 16 - - 0.0
21/10:00pm 16.2 13.4 13.1 82 1.8 ENE 20 32 11 17 - - 0.0
21/09:30pm 16.4 13.5 12.9 80 2.0 ENE 20 28 11 15 - - 0.0
21/09:00pm 15.8 12.9 12.4 80 1.9 NE 19 26 10 14 - - 0.0
21/08:30pm 15.5 13.5 11.5 77 2.2 ENE 13 17 7 9 - - 0.0
21/08:00pm 16.0 13.2 11.4 74 2.6 NE 17 22 9 12 - - 0.0
21/07:30pm 16.6 13.5 11.5 72 2.9 ENE 19 24 10 13 - - 0.0
21/07:00pm 17.4 14.2 11.9 70 3.1 ENE 20 28 11 15 - - 0.0
21/06:30pm 17.9 14.2 11.5 66 3.6 ENE 22 32 12 17 - - 0.0
21/06:00pm 18.6 15.2 11.4 63 4.1 E 20 28 11 15 - - 0.0
21/05:30pm 18.6 14.6 11.7 64 3.9 ESE 24 32 13 17 - - 0.0
21/05:00pm 20.8 17.8 12.0 57 5.1 E 19 28 10 15 - - 0.0
21/04:30pm 20.7 17.5 11.9 57 5.1 ENE 20 30 11 16 - - 0.0
21/04:00pm 20.6 16.4 11.2 55 5.3 ENE 24 32 13 17 - - 0.0
21/03:30pm 21.1 17.0 11.4 54 5.5 E 24 32 13 17 - - 0.0
21/03:00pm 21.1 17.2 7.3 41 7.3 NNE 17 28 9 15 - - 0.0
21/02:30pm 21.5 17.3 7.3 40 7.6 NE 19 26 10 14 - - 0.0
21/02:00pm 20.4 16.1 7.7 44 6.8 ENE 20 28 11 15 - - 0.0
21/01:30pm 21.8 18.5 10.9 50 6.2 N 19 28 10 15 - - 0.0
21/01:00pm 20.0 16.2 7.4 44 6.7 N 17 32 9 17 - - 0.0
21/12:30pm 20.8 16.8 9.1 47 6.4 NNE 20 30 11 16 - - 0.0
21/12:00pm 19.8 16.0 7.5 45 6.5 NNE 17 28 9 15 - - 0.0
21/11:30am 19.9 16.1 8.9 49 6.0 NE 19 28 10 15 - - 0.0
21/11:00am 19.0 16.1 8.1 49 5.8 NE 13 24 7 13 - - 0.0
21/10:30am 18.7 16.9 8.1 50 5.6 ENE 7 15 4 8 - - 0.0
21/10:00am 18.0 16.0 8.8 55 4.9 SE 9 13 5 7 - - 0.0
21/09:30am 15.9 14.4 9.3 65 3.5 SE 7 13 4 7 - - 0.0
21/09:00am 13.3 12.6 7.1 66 3.1 CALM 0 0 0 0 - - 0.0
21/08:30am 11.1 10.0 5.2 67 2.8 CALM 0 0 0 0 - - 0.0
21/08:00am 9.4 8.1 4.0 69 2.5 CALM 0 0 0 0 - - 0.0
21/07:30am 7.4 6.2 4.4 81 1.4 CALM 0 6 0 3 - - 0.0
21/07:00am 6.3 4.7 4.5 88 0.8 N 2 7 1 4 - - 0.0
21/06:30am 6.0 4.6 3.7 85 1.0 CALM 0 0 0 0 - - 0.0
21/06:00am 6.4 5.0 3.7 83 1.2 CALM 0 0 0 0 - - 0.0
21/05:30am 6.7 5.2 3.1 78 1.6 CALM 0 0 0 0 - - 0.0
21/05:00am 6.5 5.0 3.1 79 1.5 CALM 0 0 0 0 - - 0.0
21/04:30am 7.1 4.5 3.2 76 1.7 WSW 6 9 3 5 - - 0.0
21/04:00am 8.3 5.7 3.2 70 2.3 WSW 6 9 3 5 - - 0.0
21/03:30am 8.0 4.9 3.5 73 2.0 WSW 9 11 5 6 - - 0.0
21/03:00am 7.6 4.1 3.3 74 1.9 W 11 15 6 8 - - 0.0
21/02:30am 7.5 4.7 3.4 75 1.8 W 7 9 4 5 - - 0.0
21/02:00am 7.5 4.8 3.6 76 1.7 WNW 7 9 4 5 - - 0.0
21/01:30am 9.0 6.1 2.8 65 2.7 W 7 9 4 5 - - 0.0
21/01:00am 9.5 6.4 3.5 66 2.7 NW 9 9 5 5 - - 0.0
21/12:30am 9.2 6.4 3.2 66 2.7 W 7 9 4 5 - - 0.0
21/12:00am 8.4 6.0 2.4 66 2.6 NNE 4 9 2 5 - - 0.0
 
Date/Time
EDT
Temp
°C
App
Temp
°C
Dew
Point
°C
Rel
Hum
%
Delta-T
°C
Wind Press
QNH
hPa
Press
MSL
hPa
Rain since
9am
mm
Dir  Spd
km/h
Gust
km/h
Spd
kts
Gust
kts
20/11:30pm 9.5 6.1 1.9 59 3.3 WSW 9 13 5 7 - - 0.0
20/11:00pm 10.9 9.3 2.2 55 3.9 CALM 0 0 0 0 - - 0.0
20/10:30pm 12.5 8.8 0.0 42 5.4 SW 9 11 5 6 - - 0.0
20/10:00pm 13.4 10.0 -0.6 38 6.0 SW 7 9 4 5 - - 0.0
20/09:30pm 13.3 10.8 -1.1 37 6.1 WNW 2 6 1 3 - - 0.0
20/09:00pm 14.8 9.8 -0.9 34 6.8 W 15 19 8 10 - - 0.0
20/08:30pm 15.2 9.9 -0.9 33 7.0 W 17 20 9 11 - - 0.0
20/08:00pm 16.2 10.4 -1.4 30 7.6 WSW 19 26 10 14 - - 0.0
20/07:30pm 17.5 11.5 -1.2 28 8.2 WSW 20 30 11 16 - - 0.0
20/07:00pm 18.5 12.1 -1.9 25 8.9 WSW 22 33 12 18 - - 0.0
20/06:30pm 19.0 11.1 -1.4 25 9.0 WSW 30 44 16 24 - - 0.0
20/06:00pm 19.4 11.9 -1.1 25 9.1 WSW 28 37 15 20 - - 0.0
20/05:30pm 19.6 11.6 -2.1 23 9.5 WSW 30 41 16 22 - - 0.0
20/05:00pm 19.8 12.8 -0.8 25 9.3 W 26 37 14 20 - - 0.0
20/04:30pm 19.9 12.0 -1.8 23 9.6 W 30 41 16 22 - - 0.0
20/04:00pm 19.8 12.5 0.3 27 9.0 WSW 28 48 15 26 - - 0.0
20/03:36pm 19.3 12.0 -0.1 27 8.8 WSW 28 46 15 25 - - 0.0
20/03:30pm 19.5 12.2 0.0 27 8.9 W 28 39 15 21 - - 0.0
20/03:12pm 19.3 12.0 -0.1 27 8.8 W 28 46 15 25 - - 0.0
20/03:00pm 18.9 11.1 -0.5 27 8.7 W 30 44 16 24 - - 0.0
20/02:30pm 18.2 10.1 -0.6 28 8.4 W 32 44 17 24 - - 0.0
20/02:00pm 18.2 11.6 -0.6 28 8.4 W 24 41 13 22 - - 0.0
20/01:32pm 17.5 10.0 1.1 33 7.5 W 30 48 16 26 - - 0.0
20/01:30pm 17.7 10.8 2.8 37 7.1 WSW 28 43 15 23 - - 0.0
20/01:00pm 17.1 9.5 0.7 33 7.4 W 30 46 16 25 - - 0.0
20/12:30pm 16.6 8.6 1.5 36 6.9 WSW 33 46 18 25 - - 0.0
20/12:06pm 16.1 8.4 -0.2 33 7.2 W 30 50 16 27 - - 0.0
20/12:00pm 15.9 8.3 0.5 35 6.9 WSW 30 39 16 21 - - 0.0
20/11:30am 15.0 7.0 0.1 36 6.6 WSW 32 41 17 22 - - 0.0
20/11:03am 15.1 7.3 1.6 40 6.1 WSW 32 50 17 27 - - 0.0
20/11:00am 14.5 6.4 0.7 39 6.1 WSW 33 50 18 27 - - 0.0
20/10:58am 14.2 6.3 0.8 40 5.9 WSW 32 50 17 27 - - 0.0
20/10:30am 14.0 5.6 1.6 43 5.6 W 35 48 19 26 - - 0.0
20/10:00am 12.7 4.7 1.4 46 5.0 WSW 33 52 18 28 - - 0.0
20/09:30am 12.0 4.8 3.0 54 4.1 WSW 30 46 16 25 - - 0.0
20/09:00am 11.4 4.6 3.2 57 3.7 W 28 39 15 21 - - 0.0
20/08:30am 10.7 4.4 3.5 61 3.3 W 26 37 14 20 - - 0.0
20/08:00am 9.9 3.0 2.7 61 3.2 W 28 37 15 20 - - 0.0
20/07:30am 9.3 3.7 3.3 66 2.7 WSW 22 32 12 17 - - 0.0
20/07:00am 9.1 3.1 3.5 68 2.5 WSW 24 32 13 17 - - 0.0
20/06:30am 9.1 3.6 4.1 71 2.3 WSW 22 30 12 16 - - 0.0
20/06:00am 9.3 5.3 4.7 73 2.1 WSW 15 20 8 11 - - 0.0
20/05:30am 9.9 5.1 4.7 70 2.4 WSW 19 24 10 13 - - 0.0
20/05:00am 10.1 5.6 4.0 66 2.8 W 17 24 9 13 - - 0.0
20/04:30am 10.9 4.9 3.5 60 3.4 WSW 24 39 13 21 - - 0.0
20/04:00am 11.0 5.6 2.6 56 3.8 WSW 20 30 11 16 - - 0.0
20/03:30am 11.7 5.5 1.9 51 4.4 WSW 24 32 13 17 - - 0.0
20/03:00am 11.6 5.7 1.5 50 4.4 WSW 22 32 12 17 - - 0.0
20/02:30am 11.9 6.3 1.3 48 4.7 WSW 20 28 11 15 - - 0.0
20/02:00am 12.3 5.6 1.6 48 4.8 WSW 26 35 14 19 - - 0.0
20/01:30am 12.4 6.8 1.4 47 4.9 WSW 20 30 11 16 - - 0.0
20/01:00am 12.7 8.8 1.1 45 5.1 WSW 11 19 6 10 - - 0.0
20/12:30am 12.9 8.5 0.6 43 5.4 WSW 13 19 7 10 - - 0.0
20/12:00am 13.4 9.4 0.8 42 5.6 W 11 17 6 9 - - 0.0
 
Date/Time
EDT
Temp
°C
App
Temp
°C
Dew
Point
°C
Rel
Hum
%
Delta-T
°C
Wind Press
QNH
hPa
Press
MSL
hPa
Rain since
9am
mm
Dir  Spd
km/h
Gust
km/h
Spd
kts
Gust
kts
19/11:30pm 14.4 10.0 0.6 39 6.1 W 13 20 7 11 - - 0.0
19/11:00pm 14.9 8.4 0.4 37 6.4 WSW 24 30 13 16 - - 0.0
19/10:30pm 15.0 10.3 1.2 39 6.2 W 15 24 8 13 - - 0.0
19/10:00pm 15.7 10.2 0.3 35 6.9 WSW 19 24 10 13 - - 0.0
19/09:30pm 16.1 10.6 0.3 34 7.1 WSW 19 24 10 13 - - 0.0
19/09:00pm 16.2 11.4 -0.1 33 7.2 WSW 15 20 8 11 - - 0.0
19/08:30pm 16.9 12.8 -0.3 31 7.6 W 11 13 6 7 - - 0.0
19/08:00pm 17.7 12.7 -1.0 28 8.2 W 15 28 8 15 - - 0.0
19/07:30pm 18.8 13.5 -0.6 27 8.7 W 17 26 9 14 - - 0.0
19/07:00pm 19.8 12.8 -0.2 26 9.1 W 26 37 14 20 - - 0.0
19/06:30pm 20.5 13.3 0.9 27 9.2 WSW 28 41 15 22 - - 0.0
19/06:00pm 21.1 13.5 0.3 25 9.7 WSW 30 41 16 22 - - 0.0
19/05:30pm 21.7 14.9 0.8 25 9.9 WSW 26 41 14 22 - - 0.0
19/05:00pm 22.6 17.0 1.0 24 10.3 WSW 20 35 11 19 - - 0.0
19/04:30pm 22.4 16.7 4.9 32 9.0 WSW 24 39 13 21 - - 0.0
19/04:00pm 22.1 16.8 2.8 28 9.5 WSW 20 41 11 22 - - 0.0
19/03:30pm 21.6 16.3 2.8 29 9.2 SW 20 35 11 19 - - 0.0
19/03:00pm 21.8 17.0 5.7 35 8.3 WSW 20 33 11 18 - - 0.0

Other Formats:

Comma delimited format used in spreadsheet applications
http://www.bom.gov.au/fwo/IDN60801/IDN60801.94746.axf

JavaScript Object Notation format (JSON) in row-major order
http://www.bom.gov.au/fwo/IDN60801/IDN60801.94746.json